Ahtanum, Washington
Current Conditions -  °F | °C
As of 1:53 AM on Friday 31 Oct 2014 (Local Time) from KYKM Reporting Station
Light Rain Light Rain  
Wind Chill: 52°   Ceiling: 8000
Heat Index: 52°   Visibility: 4mi
Dew Point: 51°   Wind: 0mph
Humidity: 97%   Direction: NA
Pressure: 29.77"   Gusts: NA
Location:  46.5979°N, 120.534°W
Report Text: KYKM 310853Z AUTO 00000KT 4SM -RA BR FEW002 SCT007 OVC080 11/11 A2977 RMK AO2 SLP082 P0003 60011 T01110106 56013
Loading
Personal Weather Stations






























Interactive Weather Map
Tropical Storm Tracking
New forecast layout! Learn more

10-Day Weather Forecast

Advertisements
Track Severe Weather on mobile